createdAt,value
2023-03-12T00:02:16.426Z,93.64
2023-03-12T00:04:42.897Z,93.92
2023-03-12T00:07:09.427Z,93.06
2023-03-12T00:09:37.577Z,92.90
2023-03-12T00:12:04.965Z,91.50
2023-03-12T00:14:31.898Z,92.58
2023-03-12T00:16:58.385Z,92.72
2023-03-12T00:19:25.132Z,92.46
2023-03-12T00:21:51.570Z,92.68
2023-03-12T00:24:18.018Z,93.06
2023-03-12T00:26:44.408Z,93.05
2023-03-12T00:29:10.880Z,92.90
2023-03-12T00:31:37.293Z,92.71
2023-03-12T00:34:03.697Z,93.81
2023-03-12T00:36:31.390Z,93.56
2023-03-12T00:38:58.784Z,93.74
2023-03-12T00:41:26.161Z,93.07
2023-03-12T00:43:52.949Z,93.17
2023-03-12T00:46:20.322Z,94.05
2023-03-12T00:48:46.864Z,93.12
2023-03-12T00:51:13.691Z,92.78
2023-03-12T00:53:40.142Z,92.21
2023-03-12T00:56:06.968Z,92.97
2023-03-12T00:58:33.439Z,93.33
2023-03-12T01:00:59.930Z,93.27
2023-03-12T01:03:26.547Z,93.43
2023-03-12T01:05:54.648Z,94.30
2023-03-12T01:08:22.217Z,94.58
2023-03-12T01:10:48.671Z,94.33
2023-03-12T01:13:15.302Z,93.83
2023-03-12T01:15:41.749Z,94.02
2023-03-12T01:18:08.336Z,93.40
2023-03-12T01:20:34.869Z,94.12
2023-03-12T01:23:01.380Z,93.66
2023-03-12T01:25:28.000Z,94.28
2023-03-12T01:27:54.395Z,93.83
2023-03-12T01:30:20.790Z,93.55
2023-03-12T01:32:47.303Z,94.54
2023-03-12T01:35:13.921Z,94.16
2023-03-12T01:37:40.303Z,94.82
2023-03-12T01:40:07.100Z,94.54
2023-03-12T01:42:33.488Z,94.84
2023-03-12T01:45:02.837Z,93.69
2023-03-12T01:47:33.000Z,94.12
2023-03-12T01:50:00.849Z,94.72
2023-03-12T01:52:30.721Z,94.15
2023-03-12T01:55:06.737Z,95.32
2023-03-12T01:57:43.855Z,95.29
2023-03-12T02:00:20.741Z,95.56
2023-03-12T02:02:48.596Z,95.23
2023-03-12T02:05:23.279Z,96.01
2023-03-12T02:07:49.643Z,95.99
2023-03-12T02:10:17.118Z,95.70
2023-03-12T02:12:43.718Z,94.54
2023-03-12T02:15:10.963Z,95.77
2023-03-12T02:17:37.806Z,96.83
2023-03-12T02:20:31.979Z,96.94
2023-03-12T02:23:09.330Z,96.13
2023-03-12T02:25:41.442Z,96.05
2023-03-12T02:28:14.039Z,95.76
2023-03-12T02:30:45.339Z,96.54
2023-03-12T02:33:12.621Z,95.83
2023-03-12T02:35:39.391Z,95.36
2023-03-12T02:38:44.065Z,96.19
2023-03-12T02:41:12.027Z,96.43
2023-03-12T02:43:39.204Z,96.97
2023-03-12T02:46:06.394Z,96.41
2023-03-12T02:48:32.865Z,96.44
2023-03-12T02:50:59.320Z,96.55
2023-03-12T02:53:25.846Z,96.27
2023-03-12T02:55:52.421Z,94.98
2023-03-12T02:58:18.894Z,95.05
2023-03-12T03:00:45.276Z,94.55
2023-03-12T03:03:11.688Z,93.46
2023-03-12T03:05:38.097Z,95.40
2023-03-12T03:08:05.089Z,95.23
2023-03-12T03:10:31.551Z,95.59
2023-03-12T03:12:57.984Z,95.16
2023-03-12T03:15:24.899Z,94.96
2023-03-12T03:17:51.330Z,95.39
2023-03-12T03:20:17.973Z,96.33
2023-03-12T03:22:44.544Z,95.46
2023-03-12T03:25:11.035Z,95.87
2023-03-12T03:27:37.422Z,95.85
2023-03-12T03:30:04.463Z,96.26
2023-03-12T03:32:30.922Z,97.03
2023-03-12T03:34:57.366Z,98.14
2023-03-12T03:37:23.763Z,99.61
2023-03-12T03:39:50.164Z,99.67
2023-03-12T03:42:16.531Z,99.88
2023-03-12T03:44:43.031Z,99.56
2023-03-12T03:47:09.415Z,97.99
2023-03-12T03:49:35.871Z,99.49
2023-03-12T03:52:02.357Z,100.00
2023-03-12T03:54:30.296Z,98.77
2023-03-12T03:56:56.683Z,98.08
2023-03-12T03:59:23.064Z,98.39
2023-03-12T04:01:49.469Z,97.62
2023-03-12T04:04:15.928Z,97.98
2023-03-12T04:06:42.324Z,97.34
2023-03-12T04:09:08.871Z,96.69
2023-03-12T04:11:35.269Z,96.37
2023-03-12T04:14:01.662Z,96.18
2023-03-12T04:16:28.196Z,96.81
2023-03-12T04:18:54.684Z,95.99
2023-03-12T04:21:21.164Z,96.93
2023-03-12T04:23:47.618Z,97.70
2023-03-12T04:26:14.106Z,96.75
2023-03-12T04:28:40.539Z,96.32
2023-03-12T04:31:08.122Z,96.92
2023-03-12T04:33:39.726Z,97.46
2023-03-12T04:36:07.025Z,98.24
2023-03-12T04:38:33.932Z,97.03
2023-03-12T04:41:05.146Z,97.17
2023-03-12T04:43:32.193Z,96.70
2023-03-12T04:45:59.299Z,96.75
2023-03-12T04:48:26.384Z,96.54
2023-03-12T04:50:53.411Z,96.06
2023-03-12T04:53:20.676Z,96.27
2023-03-12T04:55:47.188Z,96.17
2023-03-12T04:58:15.171Z,96.16
2023-03-12T05:00:42.228Z,95.50
2023-03-12T05:03:09.146Z,94.34
2023-03-12T05:05:35.954Z,94.62
2023-03-12T05:08:03.388Z,94.14
2023-03-12T05:10:29.756Z,96.36
2023-03-12T05:12:56.259Z,95.83
2023-03-12T05:15:22.985Z,95.82
2023-03-12T05:17:49.405Z,96.16
2023-03-12T05:20:17.643Z,95.95
2023-03-12T05:22:44.165Z,95.12
2023-03-12T05:25:11.109Z,96.79
2023-03-12T05:27:37.876Z,97.29
2023-03-12T05:30:06.448Z,97.39
2023-03-12T05:32:33.070Z,98.12
2023-03-12T05:34:59.486Z,96.87
2023-03-12T05:37:25.879Z,97.57
2023-03-12T05:39:54.271Z,96.00
2023-03-12T05:42:20.704Z,96.22
2023-03-12T05:44:47.061Z,96.70
2023-03-12T05:47:13.450Z,94.73
2023-03-12T05:49:39.885Z,96.13
2023-03-12T05:52:06.634Z,95.43
2023-03-12T05:54:33.186Z,95.06
2023-03-12T05:56:59.647Z,95.47
2023-03-12T05:59:26.263Z,94.97
2023-03-12T06:01:52.711Z,94.66
2023-03-12T06:04:19.092Z,94.98
2023-03-12T06:06:45.452Z,95.66
2023-03-12T06:09:11.973Z,96.48
2023-03-12T06:11:38.389Z,96.32
2023-03-12T06:14:05.094Z,97.39
2023-03-12T06:16:31.584Z,97.69
2023-03-12T06:19:01.020Z,97.49
2023-03-12T06:21:31.317Z,96.71
2023-03-12T06:23:58.403Z,96.19
2023-03-12T06:26:25.586Z,97.43
2023-03-12T06:28:53.175Z,99.21
2023-03-12T06:31:21.151Z,99.32
2023-03-12T06:33:47.951Z,99.51
2023-03-12T06:36:14.487Z,100.00
2023-03-12T06:38:41.766Z,100.00
2023-03-12T06:41:14.459Z,100.00
2023-03-12T06:43:41.839Z,100.00
2023-03-12T06:46:12.473Z,100.00
2023-03-12T06:48:41.465Z,100.00
2023-03-12T06:51:09.640Z,100.00
2023-03-12T06:53:36.673Z,100.00
2023-03-12T06:56:03.688Z,100.00
2023-03-12T06:58:30.614Z,100.00
2023-03-12T07:00:57.507Z,100.00
2023-03-12T07:03:24.722Z,100.00
2023-03-12T07:05:52.108Z,100.00
2023-03-12T07:08:18.939Z,100.00
2023-03-12T07:10:46.410Z,100.00
2023-03-12T07:13:13.273Z,100.00
2023-03-12T07:15:40.032Z,100.00
2023-03-12T07:18:11.406Z,100.00
2023-03-12T07:20:40.783Z,100.00
2023-03-12T07:23:07.845Z,100.00
2023-03-12T07:25:39.479Z,100.00
2023-03-12T07:28:06.827Z,100.00
2023-03-12T07:30:33.858Z,100.00
2023-03-12T07:33:09.049Z,100.00
2023-03-12T07:35:36.303Z,100.00
2023-03-12T07:38:02.853Z,100.00
2023-03-12T07:40:29.346Z,100.00
2023-03-12T07:42:55.768Z,100.00
2023-03-12T07:45:22.567Z,100.00
2023-03-12T07:47:49.686Z,100.00
2023-03-12T07:50:17.810Z,100.00
2023-03-12T07:52:44.935Z,100.00
2023-03-12T07:55:12.203Z,100.00
2023-03-12T07:57:38.736Z,100.00
2023-03-12T08:00:07.560Z,100.00
2023-03-12T08:02:34.355Z,100.00
2023-03-12T08:05:00.837Z,100.00
2023-03-12T08:07:32.133Z,100.00
2023-03-12T08:09:59.609Z,100.00
2023-03-12T08:12:26.196Z,100.00
2023-03-12T08:14:52.584Z,100.00
2023-03-12T08:17:19.258Z,100.00
2023-03-12T08:19:45.842Z,100.00
2023-03-12T08:22:12.264Z,100.00
2023-03-12T08:24:39.411Z,100.00
2023-03-12T08:27:05.903Z,100.00
2023-03-12T08:29:33.450Z,100.00
2023-03-12T08:32:04.984Z,100.00
2023-03-12T08:34:35.390Z,100.00
2023-03-12T08:37:02.910Z,100.00
2023-03-12T08:39:29.593Z,100.00
2023-03-12T08:42:00.139Z,100.00
2023-03-12T08:44:27.083Z,100.00
2023-03-12T08:46:53.523Z,100.00
2023-03-12T08:49:21.259Z,100.00
2023-03-12T08:51:47.968Z,100.00
2023-03-12T08:54:14.442Z,100.00
2023-03-12T08:56:44.137Z,100.00
2023-03-12T08:59:11.644Z,100.00
2023-03-12T09:01:38.327Z,100.00
2023-03-12T09:04:05.597Z,100.00
2023-03-12T09:06:33.437Z,100.00
2023-03-12T09:09:04.772Z,100.00
2023-03-12T09:11:33.037Z,100.00
2023-03-12T09:14:39.472Z,100.00
2023-03-12T09:16:46.810Z,100.00
2023-03-12T09:19:13.412Z,100.00
2023-03-12T09:21:40.104Z,100.00
2023-03-12T09:24:07.530Z,100.00
2023-03-12T09:26:34.452Z,100.00
2023-03-12T09:29:00.898Z,100.00
2023-03-12T09:31:27.518Z,100.00
2023-03-12T09:33:53.902Z,100.00
2023-03-12T09:36:20.521Z,100.00
2023-03-12T09:38:46.882Z,100.00
2023-03-12T09:41:28.882Z,100.00
2023-03-12T09:44:03.566Z,100.00
2023-03-12T09:46:37.680Z,100.00
2023-03-12T09:49:11.331Z,100.00
2023-03-12T09:51:49.191Z,100.00
2023-03-12T09:54:27.657Z,100.00
2023-03-12T09:56:57.195Z,100.00
2023-03-12T09:59:23.947Z,100.00
2023-03-12T10:01:58.139Z,100.00
2023-03-12T10:04:58.673Z,100.00
2023-03-12T10:07:27.718Z,100.00
2023-03-12T10:10:07.994Z,100.00
2023-03-12T10:12:55.749Z,100.00
2023-03-12T10:15:40.084Z,100.00
2023-03-12T10:18:25.616Z,100.00
2023-03-12T10:21:07.523Z,100.00
2023-03-12T10:23:52.162Z,100.00
2023-03-12T10:26:53.590Z,100.00
2023-03-12T10:29:32.569Z,100.00
2023-03-12T10:32:10.975Z,100.00
2023-03-12T10:34:42.853Z,100.00
2023-03-12T10:37:18.387Z,100.00
2023-03-12T10:39:45.216Z,100.00
2023-03-12T10:42:20.987Z,100.00
2023-03-12T10:44:50.880Z,100.00
2023-03-12T10:47:36.971Z,100.00
2023-03-12T10:50:15.262Z,99.54
2023-03-12T10:52:42.374Z,100.00
2023-03-12T10:55:32.424Z,100.00
2023-03-12T10:57:58.831Z,100.00
2023-03-12T11:00:31.081Z,100.00
2023-03-12T11:03:20.309Z,100.00
2023-03-12T11:05:49.768Z,100.00
2023-03-12T11:08:36.896Z,100.00
2023-03-12T11:11:04.979Z,100.00
2023-03-12T11:13:38.081Z,100.00
2023-03-12T11:16:16.475Z,99.55
2023-03-12T11:19:26.847Z,100.00
2023-03-12T11:21:58.225Z,99.83
2023-03-12T11:24:24.836Z,99.25
2023-03-12T11:27:23.969Z,98.93
2023-03-12T11:29:50.659Z,99.41
2023-03-12T11:32:31.389Z,99.02
2023-03-12T11:34:58.183Z,97.26
2023-03-12T11:37:46.172Z,94.68
2023-03-12T11:40:24.230Z,94.48
2023-03-12T11:43:11.563Z,94.87
2023-03-12T11:45:52.725Z,93.99
2023-03-12T11:48:37.453Z,94.13
2023-03-12T11:51:17.560Z,93.54
2023-03-12T11:54:08.081Z,93.62
2023-03-12T11:56:38.882Z,92.86
2023-03-12T11:59:18.507Z,94.11
2023-03-12T12:02:09.747Z,95.67
2023-03-12T12:05:15.827Z,96.97
2023-03-12T12:08:00.816Z,96.11
2023-03-12T12:10:33.442Z,95.12
2023-03-12T12:13:38.602Z,95.43
2023-03-12T12:16:16.966Z,95.52
2023-03-12T12:19:07.068Z,96.05
2023-03-12T12:22:08.119Z,96.05
2023-03-12T12:24:53.247Z,96.98
2023-03-12T12:27:32.151Z,95.27
2023-03-12T12:30:22.531Z,96.62
2023-03-12T12:32:48.994Z,96.19
2023-03-12T12:35:35.112Z,95.96
2023-03-12T12:38:09.182Z,95.99
2023-03-12T12:40:37.752Z,96.58
2023-03-12T12:43:17.659Z,97.31
2023-03-12T12:45:45.017Z,97.21
2023-03-12T12:48:25.727Z,96.84
2023-03-12T12:50:54.584Z,97.52
2023-03-12T12:53:25.547Z,98.16
2023-03-12T12:56:00.262Z,97.89
2023-03-12T12:58:43.633Z,98.39
2023-03-12T13:01:10.995Z,98.72
2023-03-12T13:03:38.559Z,98.56
2023-03-12T13:06:06.768Z,98.02
2023-03-12T13:08:44.914Z,98.44
2023-03-12T13:11:19.446Z,99.08
2023-03-12T13:14:10.949Z,99.50
2023-03-12T13:16:39.468Z,98.66
2023-03-12T13:19:14.952Z,98.49
2023-03-12T13:21:54.234Z,98.99
2023-03-12T13:24:31.097Z,99.30
2023-03-12T13:27:09.519Z,99.36
2023-03-12T13:29:39.787Z,98.00
2023-03-12T13:32:10.639Z,97.08
2023-03-12T13:34:46.396Z,96.89
2023-03-12T13:37:47.351Z,95.54
2023-03-12T13:40:29.014Z,95.11
2023-03-12T13:43:14.958Z,94.63
2023-03-12T13:45:41.273Z,94.32
2023-03-12T13:48:20.779Z,94.20
2023-03-12T13:51:10.546Z,93.37
2023-03-12T13:53:40.687Z,92.57
2023-03-12T13:56:11.419Z,91.98
2023-03-12T13:58:46.981Z,92.34
2023-03-12T14:01:18.014Z,91.88
2023-03-12T14:03:49.767Z,92.87
2023-03-12T14:06:22.897Z,93.29
2023-03-12T14:09:24.237Z,92.73
2023-03-12T14:12:05.680Z,92.55
2023-03-12T14:14:51.013Z,92.57
2023-03-12T14:17:30.922Z,92.71
2023-03-12T14:20:08.071Z,91.78
2023-03-12T14:22:38.182Z,91.74
2023-03-12T14:25:22.018Z,91.92
2023-03-12T14:27:49.823Z,90.83
2023-03-12T14:30:25.298Z,90.21
2023-03-12T14:32:56.293Z,90.55
2023-03-12T14:35:28.316Z,90.15
2023-03-12T14:38:03.074Z,88.83
2023-03-12T14:40:46.031Z,88.20
2023-03-12T14:43:20.778Z,86.58
2023-03-12T14:45:50.927Z,87.20
2023-03-12T14:48:21.573Z,87.49
2023-03-12T14:50:48.762Z,87.00
2023-03-12T14:53:30.578Z,87.03
2023-03-12T14:56:20.984Z,87.01
2023-03-12T14:58:49.283Z,86.53
2023-03-12T15:01:20.525Z,86.50
2023-03-12T15:03:50.656Z,86.98
2023-03-12T15:06:29.016Z,87.94
2023-03-12T15:08:56.996Z,88.49
2023-03-12T15:11:27.057Z,87.17
2023-03-12T15:14:02.226Z,87.19
2023-03-12T15:16:28.830Z,86.56
2023-03-12T15:18:56.490Z,86.28
2023-03-12T15:21:23.243Z,86.75
2023-03-12T15:23:50.375Z,86.02
2023-03-12T15:26:19.847Z,85.82
2023-03-12T15:29:01.272Z,85.81
2023-03-12T15:31:28.392Z,85.41
2023-03-12T15:34:03.847Z,85.62
2023-03-12T15:36:32.595Z,85.54
2023-03-12T15:39:12.810Z,85.78
2023-03-12T15:41:48.780Z,85.44
2023-03-12T15:44:20.890Z,85.46
2023-03-12T15:46:50.210Z,85.62
2023-03-12T15:49:29.847Z,85.08
2023-03-12T15:52:19.834Z,85.44
2023-03-12T15:55:12.103Z,85.02
2023-03-12T15:57:45.859Z,83.98
2023-03-12T16:00:12.215Z,83.84
2023-03-12T16:02:58.266Z,83.82
2023-03-12T16:05:28.272Z,83.56
2023-03-12T16:07:54.781Z,83.37
2023-03-12T16:10:24.666Z,83.31
2023-03-12T16:12:58.148Z,83.78
2023-03-12T16:15:30.483Z,83.96
2023-03-12T16:17:57.087Z,83.92
2023-03-12T16:20:23.594Z,83.81
2023-03-12T16:22:50.017Z,84.25
2023-03-12T16:25:16.515Z,85.00
2023-03-12T16:27:49.748Z,85.20
2023-03-12T16:30:36.390Z,84.65
2023-03-12T16:33:08.926Z,84.57
2023-03-12T16:35:36.007Z,84.88
2023-03-12T16:38:02.723Z,83.43
2023-03-12T16:40:35.419Z,83.65
2023-03-12T16:43:07.375Z,82.33
2023-03-12T16:45:35.955Z,82.42
2023-03-12T16:48:06.499Z,80.03
2023-03-12T16:50:33.116Z,79.44
2023-03-12T16:52:59.864Z,78.91
2023-03-12T16:55:30.084Z,77.82
2023-03-12T16:58:00.308Z,77.29
2023-03-12T17:00:30.138Z,78.25
2023-03-12T17:02:59.641Z,76.54
2023-03-12T17:05:30.477Z,76.74
2023-03-12T17:07:58.403Z,76.96
2023-03-12T17:10:26.143Z,76.89
2023-03-12T17:12:53.715Z,76.81
2023-03-12T17:15:21.486Z,76.90
2023-03-12T17:17:49.116Z,76.73
2023-03-12T17:20:17.889Z,76.90
2023-03-12T17:22:44.404Z,77.47
2023-03-12T17:25:23.224Z,77.52
2023-03-12T17:27:50.141Z,77.64
2023-03-12T17:30:16.843Z,77.79
2023-03-12T17:32:43.405Z,77.69
2023-03-12T17:35:09.958Z,77.36
2023-03-12T17:37:36.398Z,77.80
2023-03-12T17:40:09.324Z,78.49
2023-03-12T17:42:37.231Z,77.93
2023-03-12T17:45:08.254Z,78.65
2023-03-12T17:47:35.622Z,78.24
2023-03-12T17:50:02.981Z,78.23
2023-03-12T17:52:29.387Z,77.70
2023-03-12T17:54:55.779Z,78.44
2023-03-12T17:57:22.703Z,77.90
2023-03-12T17:59:49.137Z,77.82
2023-03-12T18:02:15.572Z,77.84
2023-03-12T18:04:42.031Z,78.52
2023-03-12T18:07:08.955Z,79.76
2023-03-12T18:09:35.483Z,79.37
2023-03-12T18:12:02.246Z,79.71
2023-03-12T18:14:28.599Z,79.41
2023-03-12T18:16:54.992Z,79.90
2023-03-12T18:19:21.461Z,80.57
2023-03-12T18:21:47.861Z,81.11
2023-03-12T18:24:14.900Z,81.18
2023-03-12T18:26:41.640Z,81.46
2023-03-12T18:29:08.025Z,80.81
2023-03-12T18:31:34.676Z,81.28
2023-03-12T18:34:01.190Z,81.20
2023-03-12T18:36:27.669Z,81.51
2023-03-12T18:38:54.048Z,81.56
2023-03-12T18:41:20.628Z,81.95
2023-03-12T18:43:47.060Z,81.53
2023-03-12T18:46:13.619Z,82.05
2023-03-12T18:48:41.792Z,82.21
2023-03-12T18:51:10.087Z,82.64
2023-03-12T18:53:36.649Z,82.85
2023-03-12T18:56:03.101Z,83.06
2023-03-12T18:58:29.615Z,83.62
2023-03-12T19:00:57.835Z,83.42
2023-03-12T19:03:25.578Z,83.89
2023-03-12T19:06:07.124Z,84.14
2023-03-12T19:08:34.062Z,84.12
2023-03-12T19:11:00.467Z,84.19
2023-03-12T19:13:26.878Z,84.10
2023-03-12T19:16:04.715Z,83.89
2023-03-12T19:18:31.194Z,84.21
2023-03-12T19:20:57.638Z,85.14
2023-03-12T19:23:24.094Z,85.40
2023-03-12T19:25:50.448Z,85.53
2023-03-12T19:28:17.120Z,85.80
2023-03-12T19:30:43.491Z,85.61
2023-03-12T19:33:10.227Z,85.87
2023-03-12T19:35:41.463Z,85.80
2023-03-12T19:38:09.002Z,85.54
2023-03-12T19:40:35.753Z,85.31
2023-03-12T19:43:02.548Z,84.69
2023-03-12T19:45:29.200Z,84.48
2023-03-12T19:47:55.639Z,85.06
2023-03-12T19:50:22.976Z,85.31
2023-03-12T19:52:49.642Z,84.89
2023-03-12T19:55:16.712Z,84.65
2023-03-12T19:57:43.107Z,85.11
2023-03-12T20:00:12.009Z,84.12
2023-03-12T20:02:39.459Z,84.15
2023-03-12T20:05:07.480Z,84.09
2023-03-12T20:07:34.066Z,84.29
2023-03-12T20:10:00.650Z,83.78
2023-03-12T20:12:27.040Z,83.72
2023-03-12T20:14:53.560Z,84.14
2023-03-12T20:17:19.926Z,83.88
2023-03-12T20:19:46.328Z,84.50
2023-03-12T20:22:12.951Z,84.18
2023-03-12T20:24:39.368Z,84.88
2023-03-12T20:27:05.831Z,84.77
2023-03-12T20:29:32.266Z,84.25
2023-03-12T20:31:58.692Z,84.53
2023-03-12T20:34:28.943Z,85.00
2023-03-12T20:36:55.292Z,85.28
2023-03-12T20:39:21.644Z,85.14
2023-03-12T20:41:49.402Z,84.58
2023-03-12T20:44:16.599Z,85.43
2023-03-12T20:46:43.044Z,85.86
2023-03-12T20:49:09.411Z,86.00
2023-03-12T20:51:35.989Z,86.91
2023-03-12T20:54:02.397Z,87.32
2023-03-12T20:56:28.791Z,88.44
2023-03-12T20:58:55.343Z,87.86
2023-03-12T21:01:21.839Z,87.88
2023-03-12T21:03:48.256Z,88.78
2023-03-12T21:06:14.674Z,89.14
2023-03-12T21:08:41.088Z,89.83
2023-03-12T21:11:07.909Z,89.45
2023-03-12T21:13:34.521Z,90.66
2023-03-12T21:16:00.890Z,90.77
2023-03-12T21:18:28.971Z,91.63
2023-03-12T21:21:01.301Z,91.99
2023-03-12T21:23:27.820Z,92.59
2023-03-12T21:25:59.709Z,92.53
2023-03-12T21:28:27.223Z,92.57
2023-03-12T21:30:53.761Z,91.99
2023-03-12T21:33:20.125Z,92.76
2023-03-12T21:35:47.253Z,93.01
2023-03-12T21:38:13.813Z,93.19
2023-03-12T21:40:40.215Z,93.86
2023-03-12T21:43:06.620Z,94.98
2023-03-12T21:45:34.102Z,94.63
2023-03-12T21:48:00.464Z,94.72
2023-03-12T21:50:26.797Z,95.04
2023-03-12T21:52:53.347Z,95.24
2023-03-12T21:55:19.731Z,95.72
2023-03-12T21:57:46.270Z,95.69
2023-03-12T22:00:14.069Z,97.29
2023-03-12T22:02:41.758Z,97.46
2023-03-12T22:05:08.952Z,97.27
2023-03-12T22:07:35.852Z,97.36
2023-03-12T22:10:03.520Z,97.23
2023-03-12T22:12:29.981Z,97.74
2023-03-12T22:14:56.415Z,98.11
2023-03-12T22:17:22.847Z,97.96
2023-03-12T22:19:49.219Z,98.33
2023-03-12T22:22:15.682Z,97.91
2023-03-12T22:24:42.298Z,98.80
2023-03-12T22:27:08.873Z,98.69
2023-03-12T22:29:35.332Z,99.28
2023-03-12T22:32:01.962Z,98.94
2023-03-12T22:34:29.599Z,99.44
2023-03-12T22:36:56.004Z,99.75
2023-03-12T22:39:22.432Z,100.00
2023-03-12T22:41:52.986Z,100.00
2023-03-12T22:44:19.579Z,100.00
2023-03-12T22:46:46.109Z,100.00
2023-03-12T22:49:12.633Z,100.00
2023-03-12T22:51:39.018Z,100.00
2023-03-12T22:54:05.504Z,100.00
2023-03-12T22:56:32.058Z,99.66
2023-03-12T22:58:58.605Z,99.30
2023-03-12T23:01:25.221Z,100.00
2023-03-12T23:03:51.812Z,100.00
2023-03-12T23:06:20.958Z,99.85
2023-03-12T23:08:48.336Z,99.83
2023-03-12T23:11:15.793Z,99.65
2023-03-12T23:13:44.469Z,99.59
2023-03-12T23:16:14.171Z,100.00
2023-03-12T23:18:41.579Z,100.00
2023-03-12T23:21:10.066Z,99.86
2023-03-12T23:23:39.346Z,99.12
2023-03-12T23:26:06.578Z,99.81
2023-03-12T23:28:32.970Z,99.35
2023-03-12T23:31:07.448Z,100.00
2023-03-12T23:33:34.839Z,99.80
2023-03-12T23:36:13.279Z,99.96
2023-03-12T23:38:40.220Z,99.59
2023-03-12T23:41:18.525Z,99.39
2023-03-12T23:43:45.296Z,99.48
2023-03-12T23:46:13.067Z,99.36
2023-03-12T23:48:40.346Z,98.70
2023-03-12T23:51:12.966Z,98.15
2023-03-12T23:53:43.517Z,98.46
2023-03-12T23:56:14.677Z,97.89
2023-03-12T23:58:41.678Z,97.17
